createdAt,value
2019-02-06T00:02:03.120Z,36.93
2019-02-06T00:04:32.560Z,37.50
2019-02-06T00:07:02.169Z,37.17
2019-02-06T00:09:31.603Z,37.77
2019-02-06T00:12:01.173Z,37.73
2019-02-06T00:14:30.690Z,38.07
2019-02-06T00:17:00.617Z,38.07
2019-02-06T00:19:30.126Z,37.27
2019-02-06T00:21:59.647Z,38.67
2019-02-06T00:24:29.155Z,37.67
2019-02-06T00:26:58.695Z,37.40
2019-02-06T00:29:28.136Z,36.27
2019-02-06T00:31:57.963Z,35.37
2019-02-06T00:34:27.403Z,37.30
2019-02-06T00:36:58.425Z,37.93
2019-02-06T00:39:27.862Z,36.27
2019-02-06T00:41:57.596Z,37.27
2019-02-06T00:44:27.046Z,37.50
2019-02-06T00:46:56.679Z,37.17
2019-02-06T00:49:26.304Z,36.50
2019-02-06T00:51:55.799Z,38.17
2019-02-06T00:54:25.293Z,39.37
2019-02-06T00:56:54.844Z,40.70
2019-02-06T00:59:24.400Z,40.13
2019-02-06T01:01:54.229Z,40.93
2019-02-06T01:04:23.893Z,40.53
2019-02-06T01:06:53.478Z,40.60
2019-02-06T01:09:23.019Z,42.13
2019-02-06T01:11:52.603Z,40.27
2019-02-06T01:14:22.232Z,39.47
2019-02-06T01:16:51.947Z,40.37
2019-02-06T01:19:21.514Z,40.67
2019-02-06T01:21:51.095Z,40.53
2019-02-06T01:24:20.558Z,41.23
2019-02-06T01:26:50.167Z,42.57
2019-02-06T01:29:19.571Z,43.70
2019-02-06T01:31:50.847Z,42.73
2019-02-06T01:34:20.329Z,43.27
2019-02-06T01:36:49.954Z,41.27
2019-02-06T01:39:19.493Z,42.20
2019-02-06T01:41:49.150Z,41.30
2019-02-06T01:44:18.739Z,43.53
2019-02-06T01:46:50.223Z,42.83
2019-02-06T01:49:19.928Z,39.73
2019-02-06T01:51:50.963Z,40.17
2019-02-06T01:54:20.555Z,43.13
2019-02-06T01:56:50.100Z,40.83
2019-02-06T01:59:19.719Z,39.90
2019-02-06T02:01:49.563Z,40.20
2019-02-06T02:04:20.662Z,39.80
2019-02-06T02:06:50.367Z,39.03
2019-02-06T02:09:19.937Z,36.17
2019-02-06T02:11:49.858Z,36.40
2019-02-06T02:14:19.635Z,37.00
2019-02-06T02:16:49.293Z,35.67
2019-02-06T02:19:18.863Z,36.00
2019-02-06T02:21:48.304Z,34.27
2019-02-06T02:24:19.438Z,34.87
2019-02-06T02:26:48.811Z,33.60
2019-02-06T02:29:19.228Z,33.10
2019-02-06T02:31:50.347Z,31.93
2019-02-06T02:34:19.903Z,32.83
2019-02-06T02:36:49.375Z,31.60
2019-02-06T02:39:18.897Z,31.43
2019-02-06T02:41:48.340Z,29.90
2019-02-06T02:44:17.923Z,31.60
2019-02-06T02:46:47.426Z,29.90
2019-02-06T02:49:16.962Z,30.17
2019-02-06T02:51:46.463Z,28.80
2019-02-06T02:54:17.702Z,29.53
2019-02-06T02:56:48.776Z,28.70
2019-02-06T02:59:18.700Z,26.87
2019-02-06T03:01:49.803Z,26.77
2019-02-06T03:04:20.999Z,25.97
2019-02-06T03:06:50.581Z,27.00
2019-02-06T03:09:20.180Z,26.00
2019-02-06T03:11:49.695Z,26.80
2019-02-06T03:14:19.315Z,27.73
2019-02-06T03:16:48.747Z,27.10
2019-02-06T03:19:18.239Z,26.53
2019-02-06T03:21:47.817Z,25.37
2019-02-06T03:24:17.291Z,25.13
2019-02-06T03:26:47.003Z,25.63
2019-02-06T03:29:16.552Z,26.43
2019-02-06T03:31:45.986Z,25.07
2019-02-06T03:34:15.447Z,24.93
2019-02-06T03:36:45.022Z,25.53
2019-02-06T03:39:14.483Z,24.27
2019-02-06T03:41:45.404Z,24.43
2019-02-06T03:44:15.500Z,25.53
2019-02-06T03:46:44.927Z,24.27
2019-02-06T03:49:14.321Z,25.30
2019-02-06T03:51:43.813Z,23.30
2019-02-06T03:54:13.271Z,22.83
2019-02-06T03:56:42.782Z,22.73
2019-02-06T03:59:12.321Z,22.13
2019-02-06T04:01:41.790Z,23.43
2019-02-06T04:04:11.510Z,23.40
2019-02-06T04:06:52.718Z,21.93
2019-02-06T04:09:12.626Z,22.10
2019-02-06T04:11:42.096Z,20.70
2019-02-06T04:14:11.741Z,21.03
2019-02-06T04:16:41.243Z,19.90
2019-02-06T04:19:10.723Z,18.90
2019-02-06T04:21:40.307Z,19.47
2019-02-06T04:24:11.310Z,18.40
2019-02-06T04:26:41.260Z,18.90
2019-02-06T04:29:12.307Z,18.53
2019-02-06T04:31:41.744Z,19.00
2019-02-06T04:34:14.361Z,17.73
2019-02-06T04:36:43.893Z,17.67
2019-02-06T04:39:13.442Z,15.73
2019-02-06T04:41:43.180Z,16.60
2019-02-06T04:44:14.200Z,16.67
2019-02-06T04:46:43.640Z,16.67
2019-02-06T04:49:13.116Z,15.47
2019-02-06T04:51:42.556Z,16.33
2019-02-06T04:54:12.159Z,15.33
2019-02-06T04:56:41.830Z,15.27
2019-02-06T04:59:11.304Z,14.20
2019-02-06T05:01:40.843Z,13.17
2019-02-06T05:04:10.312Z,14.43
2019-02-06T05:06:39.919Z,13.87
2019-02-06T05:09:09.464Z,14.20
2019-02-06T05:11:39.307Z,13.80
2019-02-06T05:14:08.776Z,13.87
2019-02-06T05:16:38.583Z,14.20
2019-02-06T05:19:08.056Z,13.17
2019-02-06T05:21:37.545Z,13.50
2019-02-06T05:24:07.088Z,13.60
2019-02-06T05:26:36.969Z,14.87
2019-02-06T05:29:06.578Z,14.30
2019-02-06T05:31:36.036Z,14.37
2019-02-06T05:34:05.902Z,14.03
2019-02-06T05:36:35.563Z,13.77
2019-02-06T05:39:07.370Z,14.73
2019-02-06T05:41:37.158Z,14.37
2019-02-06T05:44:06.762Z,13.40
2019-02-06T05:46:36.169Z,14.40
2019-02-06T05:49:05.657Z,14.87
2019-02-06T05:51:35.122Z,15.67
2019-02-06T05:54:04.737Z,15.83
2019-02-06T05:56:34.507Z,15.40
2019-02-06T05:59:03.980Z,15.77
2019-02-06T06:01:33.447Z,14.73
2019-02-06T06:04:03.236Z,15.43
2019-02-06T06:06:33.372Z,15.27
2019-02-06T06:09:04.560Z,15.03
2019-02-06T06:11:34.319Z,15.27
2019-02-06T06:14:03.782Z,15.57
2019-02-06T06:16:33.260Z,15.27
2019-02-06T06:19:02.877Z,15.27
2019-02-06T06:21:32.364Z,15.17
2019-02-06T06:24:01.839Z,15.70
2019-02-06T06:26:32.951Z,14.83
2019-02-06T06:29:02.465Z,15.70
2019-02-06T06:31:31.939Z,15.73
2019-02-06T06:34:02.223Z,15.17
2019-02-06T06:36:31.683Z,15.47
2019-02-06T06:39:01.126Z,15.57
2019-02-06T06:41:31.066Z,15.90
2019-02-06T06:44:00.502Z,15.20
2019-02-06T06:46:30.051Z,16.40
2019-02-06T06:48:59.483Z,15.37
2019-02-06T06:51:29.052Z,15.97
2019-02-06T06:53:58.486Z,16.23
2019-02-06T06:56:28.346Z,16.47
2019-02-06T06:58:57.804Z,16.63
2019-02-06T07:01:28.016Z,17.63
2019-02-06T07:03:57.411Z,17.60
2019-02-06T07:06:26.942Z,17.40
2019-02-06T07:08:56.791Z,18.17
2019-02-06T07:11:26.276Z,17.77
2019-02-06T07:13:55.950Z,17.13
2019-02-06T07:16:27.085Z,18.53
2019-02-06T07:18:56.614Z,17.07
2019-02-06T07:21:27.850Z,18.97
2019-02-06T07:23:57.409Z,18.13
2019-02-06T07:26:28.403Z,17.93
2019-02-06T07:28:57.956Z,18.07
2019-02-06T07:31:27.459Z,19.33
2019-02-06T07:33:57.155Z,19.30
2019-02-06T07:36:27.740Z,19.00
2019-02-06T07:38:57.478Z,18.57
2019-02-06T07:41:27.418Z,19.97
2019-02-06T07:43:56.889Z,19.53
2019-02-06T07:46:26.379Z,20.60
2019-02-06T07:48:55.851Z,19.93
2019-02-06T07:51:26.782Z,20.30
2019-02-06T07:53:56.378Z,19.77
2019-02-06T07:56:26.259Z,19.87
2019-02-06T07:58:55.721Z,19.50
2019-02-06T08:01:25.193Z,20.67
2019-02-06T08:03:54.936Z,20.57
2019-02-06T08:06:24.410Z,21.70
2019-02-06T08:08:54.305Z,21.83
2019-02-06T08:11:24.214Z,22.70
2019-02-06T08:13:53.822Z,23.70
2019-02-06T08:16:26.416Z,22.50
2019-02-06T08:18:57.576Z,24.33
2019-02-06T08:21:27.170Z,26.13
2019-02-06T08:23:57.134Z,25.93
2019-02-06T08:26:26.599Z,26.77
2019-02-06T08:28:56.083Z,25.63
2019-02-06T08:31:25.737Z,26.93
2019-02-06T08:33:58.493Z,27.40
2019-02-06T08:36:28.039Z,28.10
2019-02-06T08:38:57.885Z,28.00
2019-02-06T08:41:27.431Z,27.73
2019-02-06T08:43:56.915Z,28.90
2019-02-06T08:46:27.781Z,28.87
2019-02-06T08:48:57.390Z,29.60
2019-02-06T08:51:26.937Z,28.03
2019-02-06T08:53:56.831Z,28.47
2019-02-06T08:56:26.504Z,27.90
2019-02-06T08:58:56.044Z,29.07
2019-02-06T09:01:25.651Z,28.53
2019-02-06T09:03:55.266Z,27.43
2019-02-06T09:06:24.729Z,27.23
2019-02-06T09:08:59.722Z,26.63
2019-02-06T09:11:25.719Z,26.30
2019-02-06T09:13:55.267Z,28.07
2019-02-06T09:16:24.791Z,27.63
2019-02-06T09:18:54.189Z,27.33
2019-02-06T09:21:23.738Z,27.20
2019-02-06T09:23:53.430Z,27.50
2019-02-06T09:26:22.908Z,25.83
2019-02-06T09:28:52.459Z,27.40
2019-02-06T09:31:22.023Z,26.37
2019-02-06T09:33:51.569Z,26.33
2019-02-06T09:36:21.122Z,26.97
2019-02-06T09:38:51.166Z,26.43
2019-02-06T09:41:21.055Z,27.73
2019-02-06T09:43:50.513Z,26.53
2019-02-06T09:46:20.068Z,28.27
2019-02-06T09:48:49.534Z,27.73
2019-02-06T09:51:19.412Z,28.03
2019-02-06T09:53:49.270Z,28.13
2019-02-06T09:56:19.524Z,27.93
2019-02-06T09:58:48.999Z,28.43
2019-02-06T10:01:21.397Z,28.60
2019-02-06T10:03:50.160Z,27.93
2019-02-06T10:06:19.632Z,28.23
2019-02-06T10:08:49.581Z,29.10
2019-02-06T10:11:19.243Z,27.90
2019-02-06T10:13:48.700Z,27.53
2019-02-06T10:16:20.175Z,28.30
2019-02-06T10:18:49.390Z,27.40
2019-02-06T10:21:18.940Z,26.37
2019-02-06T10:23:48.645Z,26.40
2019-02-06T10:26:18.127Z,26.47
2019-02-06T10:28:47.802Z,25.87
2019-02-06T10:31:17.282Z,25.77
2019-02-06T10:33:46.789Z,24.27
2019-02-06T10:36:16.201Z,25.90
2019-02-06T10:38:46.010Z,25.80
2019-02-06T10:41:15.664Z,23.63
2019-02-06T10:43:45.174Z,23.73
2019-02-06T10:46:18.077Z,24.30
2019-02-06T10:48:46.214Z,23.37
2019-02-06T10:51:15.623Z,24.77
2019-02-06T10:53:45.196Z,23.10
2019-02-06T10:56:15.100Z,24.50
2019-02-06T10:58:44.714Z,24.27
2019-02-06T11:01:14.628Z,24.27
2019-02-06T11:03:44.256Z,23.97
2019-02-06T11:06:15.453Z,25.13
2019-02-06T11:08:45.034Z,24.80
2019-02-06T11:11:14.677Z,24.03
2019-02-06T11:13:44.224Z,23.63
2019-02-06T11:16:15.369Z,24.33
2019-02-06T11:18:44.906Z,24.50
2019-02-06T11:21:14.493Z,25.07
2019-02-06T11:23:44.765Z,25.57
2019-02-06T11:26:15.843Z,26.60
2019-02-06T11:28:45.404Z,27.33
2019-02-06T11:31:14.989Z,28.10
2019-02-06T11:33:44.671Z,26.57
2019-02-06T11:36:23.803Z,28.07
2019-02-06T11:38:45.250Z,30.00
2019-02-06T11:41:14.859Z,29.03
2019-02-06T11:43:45.367Z,29.47
2019-02-06T11:46:14.842Z,29.67
2019-02-06T11:48:44.314Z,30.73
2019-02-06T11:51:14.392Z,31.50
2019-02-06T11:53:43.923Z,30.80
2019-02-06T11:56:13.533Z,31.57
2019-02-06T11:58:43.600Z,30.97
2019-02-06T12:01:24.089Z,30.80
2019-02-06T12:03:54.451Z,31.97
2019-02-06T12:06:23.879Z,31.27
2019-02-06T12:08:54.008Z,31.30
2019-02-06T12:11:23.526Z,32.27
2019-02-06T12:13:53.119Z,32.00
2019-02-06T12:16:22.605Z,31.87
2019-02-06T12:18:52.498Z,32.13
2019-02-06T12:21:21.938Z,32.67
2019-02-06T12:23:51.482Z,31.70
2019-02-06T12:26:20.860Z,32.00
2019-02-06T12:28:50.328Z,32.10
2019-02-06T12:31:19.709Z,34.13
2019-02-06T12:33:49.256Z,31.83
2019-02-06T12:36:18.631Z,34.43
2019-02-06T12:38:53.688Z,33.40
2019-02-06T12:41:19.366Z,33.10
2019-02-06T12:43:48.982Z,35.57
2019-02-06T12:46:18.422Z,36.37
2019-02-06T12:48:48.044Z,33.93
2019-02-06T12:51:17.556Z,34.77
2019-02-06T12:53:47.102Z,35.17
2019-02-06T12:56:16.547Z,35.13
2019-02-06T12:58:46.023Z,32.20
2019-02-06T13:01:15.540Z,36.23
2019-02-06T13:03:45.067Z,34.60
2019-02-06T13:06:14.650Z,34.70
2019-02-06T13:08:46.032Z,32.97
2019-02-06T13:11:15.556Z,33.17
2019-02-06T13:13:45.429Z,33.47
2019-02-06T13:16:15.020Z,33.93
2019-02-06T13:18:44.481Z,35.03
2019-02-06T13:21:14.123Z,34.10
2019-02-06T13:23:45.145Z,34.33
2019-02-06T13:26:16.189Z,36.20
2019-02-06T13:28:47.326Z,34.63
2019-02-06T13:31:16.771Z,34.67
2019-02-06T13:33:46.439Z,35.60
2019-02-06T13:36:16.417Z,34.80
2019-02-06T13:38:46.000Z,33.77
2019-02-06T13:41:15.532Z,33.87
2019-02-06T13:43:45.246Z,33.73
2019-02-06T13:46:14.819Z,33.57
2019-02-06T13:48:44.430Z,35.20
2019-02-06T13:51:16.541Z,33.40
2019-02-06T13:53:47.019Z,35.87
2019-02-06T13:56:16.462Z,33.90
2019-02-06T13:58:46.059Z,34.10
2019-02-06T14:01:25.458Z,33.70
2019-02-06T14:03:46.851Z,33.77
2019-02-06T14:06:16.621Z,32.03
2019-02-06T14:08:46.162Z,34.00
2019-02-06T14:11:15.676Z,32.57
2019-02-06T14:13:45.221Z,33.00
2019-02-06T14:16:14.856Z,33.00
2019-02-06T14:18:44.401Z,33.27
2019-02-06T14:21:13.922Z,31.23
2019-02-06T14:23:48.511Z,30.27
2019-02-06T14:26:26.354Z,32.13
2019-02-06T14:29:07.770Z,30.77
2019-02-06T14:31:42.827Z,31.87
2019-02-06T14:34:15.425Z,32.00
2019-02-06T14:36:57.042Z,31.83
2019-02-06T14:39:38.387Z,32.27
2019-02-06T14:42:25.965Z,31.97
2019-02-06T14:45:16.440Z,32.23
2019-02-06T14:47:51.746Z,31.47
2019-02-06T14:50:27.376Z,31.60
2019-02-06T14:53:05.567Z,31.10
2019-02-06T14:55:43.993Z,29.93
2019-02-06T14:58:25.469Z,29.97
2019-02-06T15:01:13.190Z,29.30
2019-02-06T15:04:03.468Z,30.90
2019-02-06T15:06:51.823Z,30.37
2019-02-06T15:09:40.962Z,30.67
2019-02-06T15:12:29.603Z,28.47
2019-02-06T15:15:08.160Z,28.67
2019-02-06T15:17:52.880Z,29.53
2019-02-06T15:20:45.851Z,27.93
2019-02-06T15:23:32.204Z,26.20
2019-02-06T15:26:11.410Z,28.77
2019-02-06T15:29:05.276Z,28.83
2019-02-06T15:31:40.375Z,26.73
2019-02-06T15:34:15.528Z,27.53
2019-02-06T15:37:10.995Z,25.97
2019-02-06T15:40:00.335Z,23.57
2019-02-06T15:42:43.446Z,23.63
2019-02-06T15:45:31.054Z,21.07
2019-02-06T15:48:10.881Z,20.27
2019-02-06T15:50:56.950Z,20.20
2019-02-06T15:53:38.661Z,19.37
2019-02-06T15:56:26.084Z,18.80
2019-02-06T15:59:01.329Z,18.70
2019-02-06T16:01:39.616Z,17.37
2019-02-06T16:04:22.586Z,17.83
2019-02-06T16:07:24.141Z,17.13
2019-02-06T16:10:19.252Z,17.50
2019-02-06T16:13:15.939Z,17.43
2019-02-06T16:16:06.887Z,17.77
2019-02-06T16:18:39.472Z,17.30
2019-02-06T16:21:28.346Z,17.57
2019-02-06T16:24:06.970Z,16.73
2019-02-06T16:26:51.468Z,16.97
2019-02-06T16:29:40.609Z,17.30
2019-02-06T16:32:25.127Z,16.77
2019-02-06T16:35:15.635Z,17.13
2019-02-06T16:38:13.898Z,17.10
2019-02-06T16:41:19.751Z,17.30
2019-02-06T16:44:13.133Z,18.43
2019-02-06T16:46:49.191Z,17.93
2019-02-06T16:49:51.788Z,18.67
2019-02-06T16:52:27.032Z,19.13
2019-02-06T16:55:08.584Z,19.73
2019-02-06T16:57:59.060Z,19.50
2019-02-06T17:00:40.616Z,21.50
2019-02-06T17:03:16.348Z,20.87
2019-02-06T17:05:54.699Z,22.57
2019-02-06T17:08:39.113Z,21.67
2019-02-06T17:11:11.789Z,23.33
2019-02-06T17:13:55.273Z,24.10
2019-02-06T17:16:43.564Z,23.40
2019-02-06T17:19:27.746Z,24.83
2019-02-06T17:22:06.133Z,24.40
2019-02-06T17:24:53.739Z,24.77
2019-02-06T17:27:28.997Z,24.17
2019-02-06T17:30:10.336Z,24.67
2019-02-06T17:33:13.323Z,24.87
2019-02-06T17:35:51.443Z,23.43
2019-02-06T17:38:38.952Z,23.03
2019-02-06T17:41:30.796Z,25.93
2019-02-06T17:44:15.402Z,25.80
2019-02-06T17:47:02.926Z,25.40
2019-02-06T17:49:38.106Z,25.00
2019-02-06T17:52:16.112Z,25.57
2019-02-06T17:55:05.160Z,25.53
2019-02-06T17:57:34.664Z,27.40
2019-02-06T18:00:10.430Z,27.97
2019-02-06T18:02:39.940Z,26.60
2019-02-06T18:05:10.358Z,26.43
2019-02-06T18:07:40.014Z,26.10
2019-02-06T18:10:17.420Z,25.83
2019-02-06T18:12:47.218Z,26.73
2019-02-06T18:15:16.827Z,26.63
2019-02-06T18:17:46.187Z,26.80
2019-02-06T18:20:17.624Z,27.17
2019-02-06T18:22:47.269Z,26.57
2019-02-06T18:25:18.314Z,28.50
2019-02-06T18:27:47.893Z,29.13
2019-02-06T18:30:26.245Z,31.50
2019-02-06T18:33:00.419Z,31.20
2019-02-06T18:35:31.672Z,31.97
2019-02-06T18:38:01.219Z,33.97
2019-02-06T18:40:31.163Z,33.63
2019-02-06T18:43:00.680Z,31.70
2019-02-06T18:45:30.230Z,32.90
2019-02-06T18:48:04.501Z,32.33
2019-02-06T18:50:36.555Z,32.23
2019-02-06T18:53:06.943Z,30.07
2019-02-06T18:55:38.295Z,33.27
2019-02-06T18:58:08.564Z,31.67
2019-02-06T19:00:39.970Z,30.77
2019-02-06T19:03:14.468Z,31.73
2019-02-06T19:05:44.130Z,31.03
2019-02-06T19:08:13.756Z,30.50
2019-02-06T19:10:43.637Z,31.90
2019-02-06T19:13:15.003Z,32.33
2019-02-06T19:15:44.624Z,30.97
2019-02-06T19:18:14.190Z,30.90
2019-02-06T19:20:43.650Z,30.83
2019-02-06T19:23:13.138Z,32.03
2019-02-06T19:25:42.682Z,32.53
2019-02-06T19:28:12.229Z,31.43
2019-02-06T19:30:43.899Z,29.87
2019-02-06T19:33:13.840Z,31.37
2019-02-06T19:35:43.295Z,31.57
2019-02-06T19:38:12.849Z,30.80
2019-02-06T19:40:44.102Z,30.33
2019-02-06T19:43:13.639Z,32.03
2019-02-06T19:45:43.171Z,33.80
2019-02-06T19:48:16.090Z,29.70
2019-02-06T19:50:46.816Z,31.80
2019-02-06T19:53:16.571Z,32.13
2019-02-06T19:55:46.078Z,30.67
2019-02-06T19:58:15.538Z,29.07
2019-02-06T20:00:45.317Z,30.23
2019-02-06T20:03:15.206Z,29.27
2019-02-06T20:05:44.816Z,30.80
2019-02-06T20:08:14.558Z,29.17
2019-02-06T20:10:48.630Z,30.27
2019-02-06T20:13:18.259Z,30.93
2019-02-06T20:15:47.832Z,29.70
2019-02-06T20:18:17.492Z,33.43
2019-02-06T20:20:48.580Z,39.07
2019-02-06T20:23:18.197Z,39.57
2019-02-06T20:25:47.694Z,34.73
2019-02-06T20:28:17.265Z,32.57
2019-02-06T20:30:46.762Z,33.87
2019-02-06T20:33:16.624Z,34.27
2019-02-06T20:35:46.143Z,34.63
2019-02-06T20:38:15.684Z,35.40
2019-02-06T20:40:45.228Z,35.43
2019-02-06T20:43:21.653Z,36.97
2019-02-06T20:45:47.667Z,35.77
2019-02-06T20:48:17.150Z,35.90
2019-02-06T20:50:46.750Z,37.07
2019-02-06T20:53:16.235Z,37.03
2019-02-06T20:55:45.674Z,37.47
2019-02-06T20:58:15.240Z,39.87
2019-02-06T21:00:46.382Z,40.27
2019-02-06T21:03:15.878Z,37.87
2019-02-06T21:05:45.618Z,39.73
2019-02-06T21:08:15.243Z,41.23
2019-02-06T21:10:44.773Z,41.83
2019-02-06T21:13:14.275Z,39.77
2019-02-06T21:15:43.867Z,40.50
2019-02-06T21:18:13.347Z,40.90
2019-02-06T21:20:43.416Z,40.70
2019-02-06T21:23:14.402Z,42.30
2019-02-06T21:25:44.109Z,41.57
2019-02-06T21:28:13.575Z,42.40
2019-02-06T21:30:46.908Z,42.57
2019-02-06T21:33:15.421Z,44.30
2019-02-06T21:35:45.098Z,43.70
2019-02-06T21:38:14.636Z,42.70
2019-02-06T21:40:44.122Z,43.63
2019-02-06T21:43:13.667Z,43.93
2019-02-06T21:45:43.239Z,42.87
2019-02-06T21:48:12.729Z,43.37
2019-02-06T21:50:42.307Z,44.93
2019-02-06T21:53:11.873Z,44.43
2019-02-06T21:55:41.383Z,44.20
2019-02-06T21:58:10.927Z,46.30
2019-02-06T22:00:42.686Z,43.23
2019-02-06T22:03:12.325Z,44.83
2019-02-06T22:05:41.819Z,44.47
2019-02-06T22:08:11.335Z,44.70
2019-02-06T22:10:40.920Z,45.73
2019-02-06T22:13:10.594Z,45.40
2019-02-06T22:15:40.513Z,44.37
2019-02-06T22:18:10.359Z,44.77
2019-02-06T22:20:39.871Z,47.17
2019-02-06T22:23:09.496Z,45.93
2019-02-06T22:25:39.105Z,46.63
2019-02-06T22:28:08.715Z,45.43
2019-02-06T22:30:38.220Z,44.50
2019-02-06T22:33:08.075Z,46.17
2019-02-06T22:35:37.513Z,45.90
2019-02-06T22:38:07.060Z,45.70
2019-02-06T22:40:36.539Z,43.50
2019-02-06T22:43:07.647Z,42.50
2019-02-06T22:45:37.163Z,43.00
2019-02-06T22:48:06.689Z,44.27
2019-02-06T22:50:36.303Z,44.30
2019-02-06T22:53:05.924Z,42.23
2019-02-06T22:55:35.450Z,41.07
2019-02-06T22:58:05.377Z,44.10
2019-02-06T23:00:47.949Z,43.47
2019-02-06T23:03:29.802Z,42.40
2019-02-06T23:05:59.341Z,44.53
2019-02-06T23:08:28.995Z,45.90
2019-02-06T23:11:00.347Z,44.77
2019-02-06T23:13:29.998Z,42.67
2019-02-06T23:15:59.424Z,43.10
2019-02-06T23:18:28.948Z,44.07
2019-02-06T23:20:58.526Z,46.20
2019-02-06T23:23:28.082Z,45.17
2019-02-06T23:25:57.946Z,45.50
2019-02-06T23:28:27.405Z,46.60
2019-02-06T23:30:56.957Z,47.50
2019-02-06T23:33:26.610Z,47.37
2019-02-06T23:35:56.116Z,45.73
2019-02-06T23:38:25.716Z,46.67
2019-02-06T23:40:55.291Z,46.00
2019-02-06T23:43:24.823Z,46.33
2019-02-06T23:45:54.425Z,46.30
2019-02-06T23:48:23.958Z,45.13
2019-02-06T23:50:53.550Z,47.07
2019-02-06T23:53:23.198Z,47.90
2019-02-06T23:55:52.706Z,48.67
2019-02-06T23:58:22.192Z,49.73
